Terminal Aerodrome Forecast
Issued by NWS

Home | Current Version | Previous Version | Text Only | Print | Product List | Glossary On
Versions: 1 2 3 4 5 6 7 8 9 10 11 12 13 14 15 16 17 18 19 20 21 22 23 24 25 26 27 28 29 30 31 32 33 34 35 36
000
FTUS45 KGJT 181710 AAD
TAFDRO
TAF AMD
KDRO 181710Z 1817/1912 00000KT P6SM BKN013 OVC045
     FM182100 21005KT P6SM FEW050 SCT250
     FM190200 33004KT P6SM FEW120 SCT250=

USA.gov is the U.S. government's official web portal to all federal, state and local government web resources and services.